createdAt,value
2022-09-30T00:01:54.392Z,82.26
2022-09-30T00:04:25.220Z,82.16
2022-09-30T00:06:54.818Z,81.82
2022-09-30T00:09:23.093Z,81.82
2022-09-30T00:11:51.424Z,81.86
2022-09-30T00:14:23.583Z,82.06
2022-09-30T00:16:52.164Z,82.19
2022-09-30T00:19:20.227Z,82.26
2022-09-30T00:21:48.240Z,82.09
2022-09-30T00:24:16.131Z,81.99
2022-09-30T00:26:44.028Z,82.11
2022-09-30T00:29:12.436Z,82.38
2022-09-30T00:31:41.231Z,84.13
2022-09-30T00:34:12.860Z,84.71
2022-09-30T00:36:48.827Z,84.77
2022-09-30T00:39:28.329Z,84.90
2022-09-30T00:42:00.808Z,85.35
2022-09-30T00:44:54.572Z,85.05
2022-09-30T00:47:44.646Z,84.99
2022-09-30T00:50:22.135Z,84.49
2022-09-30T00:53:05.134Z,84.46
2022-09-30T00:55:35.911Z,84.50
2022-09-30T00:58:09.860Z,84.51
2022-09-30T01:00:38.222Z,84.95
2022-09-30T01:03:07.347Z,84.76
2022-09-30T01:05:35.943Z,84.83
2022-09-30T01:08:08.848Z,84.44
2022-09-30T01:10:37.645Z,83.61
2022-09-30T01:13:06.232Z,83.33
2022-09-30T01:15:53.498Z,83.37
2022-09-30T01:18:35.133Z,83.04
2022-09-30T01:21:37.993Z,83.17
2022-09-30T01:24:21.391Z,83.54
2022-09-30T01:27:19.868Z,83.61
2022-09-30T01:30:11.479Z,84.14
2022-09-30T01:32:39.132Z,84.29
2022-09-30T01:35:21.718Z,84.62
2022-09-30T01:38:31.348Z,84.80
2022-09-30T01:41:05.082Z,85.03
2022-09-30T01:43:52.696Z,85.08
2022-09-30T01:46:44.518Z,84.63
2022-09-30T01:49:41.409Z,84.41
2022-09-30T01:52:23.614Z,84.54
2022-09-30T01:55:17.210Z,84.65
2022-09-30T01:58:04.038Z,84.61
2022-09-30T02:00:38.449Z,84.65
2022-09-30T02:03:16.499Z,84.62
2022-09-30T02:05:55.886Z,84.59
2022-09-30T02:08:35.487Z,84.40
2022-09-30T02:11:13.229Z,84.27
2022-09-30T02:13:56.015Z,84.53
2022-09-30T02:16:32.510Z,84.84
2022-09-30T02:19:14.782Z,84.90
2022-09-30T02:21:55.824Z,84.78
2022-09-30T02:24:32.146Z,84.58
2022-09-30T02:27:02.611Z,84.66
2022-09-30T02:29:37.501Z,84.32
2022-09-30T02:32:15.686Z,84.40
2022-09-30T02:34:51.159Z,84.19
2022-09-30T02:37:31.477Z,84.13
2022-09-30T02:40:12.600Z,83.92
2022-09-30T02:42:44.026Z,84.10
2022-09-30T02:45:17.109Z,83.83
2022-09-30T02:48:10.655Z,83.77
2022-09-30T02:51:00.628Z,83.41
2022-09-30T02:53:46.353Z,83.47
2022-09-30T02:56:38.783Z,83.33
2022-09-30T02:59:07.137Z,83.25
2022-09-30T03:01:35.076Z,83.51
2022-09-30T03:04:08.029Z,83.37
2022-09-30T03:06:38.361Z,83.23
2022-09-30T03:09:07.974Z,83.48
2022-09-30T03:11:37.484Z,83.37
2022-09-30T03:15:16.367Z,83.37
2022-09-30T03:18:12.931Z,83.40
2022-09-30T03:21:42.748Z,84.00
2022-09-30T03:24:36.498Z,83.97
2022-09-30T03:27:16.991Z,83.94
2022-09-30T03:30:09.703Z,84.12
2022-09-30T03:32:55.144Z,84.18
2022-09-30T03:36:02.269Z,84.16
2022-09-30T03:38:49.583Z,84.18
2022-09-30T03:41:29.282Z,83.98
2022-09-30T03:44:09.909Z,84.03
2022-09-30T03:46:48.179Z,83.99
2022-09-30T03:49:24.491Z,84.13
2022-09-30T03:51:54.363Z,84.17
2022-09-30T03:54:22.968Z,84.21
2022-09-30T03:56:50.842Z,84.13
2022-09-30T03:59:30.659Z,84.04
2022-09-30T04:01:58.568Z,84.09
2022-09-30T04:04:27.477Z,84.11
2022-09-30T04:06:55.481Z,84.07
2022-09-30T04:09:23.587Z,84.20
2022-09-30T04:11:52.085Z,84.25
2022-09-30T04:14:19.980Z,84.37
2022-09-30T04:16:50.698Z,84.48
2022-09-30T04:19:21.636Z,84.58
2022-09-30T04:21:54.087Z,84.58
2022-09-30T04:24:24.589Z,84.61
2022-09-30T04:26:52.525Z,84.65
2022-09-30T04:29:20.479Z,84.76
2022-09-30T04:31:48.450Z,84.73
2022-09-30T04:34:16.310Z,84.88
2022-09-30T04:36:44.300Z,84.87
2022-09-30T04:39:12.588Z,84.97
2022-09-30T04:41:40.880Z,84.96
2022-09-30T04:44:09.337Z,85.29
2022-09-30T04:46:37.345Z,85.34
2022-09-30T04:49:16.107Z,85.32
2022-09-30T04:51:46.492Z,85.52
2022-09-30T04:54:15.239Z,85.48
2022-09-30T04:56:43.560Z,85.54
2022-09-30T04:59:11.530Z,85.69
2022-09-30T05:01:40.440Z,85.64
2022-09-30T05:04:08.496Z,85.56
2022-09-30T05:06:36.863Z,85.69
2022-09-30T05:09:04.795Z,85.71
2022-09-30T05:11:32.969Z,85.92
2022-09-30T05:14:00.904Z,85.91
2022-09-30T05:16:28.984Z,85.91
2022-09-30T05:18:56.900Z,85.97
2022-09-30T05:21:24.937Z,85.89
2022-09-30T05:23:54.375Z,85.92
2022-09-30T05:26:22.240Z,85.94
2022-09-30T05:28:50.159Z,86.06
2022-09-30T05:31:20.844Z,85.65
2022-09-30T05:33:49.027Z,85.69
2022-09-30T05:36:17.188Z,85.91
2022-09-30T05:38:45.156Z,86.03
2022-09-30T05:41:14.950Z,85.94
2022-09-30T05:43:49.981Z,86.01
2022-09-30T05:46:20.214Z,86.05
2022-09-30T05:48:48.143Z,85.96
2022-09-30T05:51:16.079Z,85.85
2022-09-30T05:53:44.924Z,85.84
2022-09-30T05:56:13.494Z,85.93
2022-09-30T05:58:42.187Z,86.03
2022-09-30T06:01:15.568Z,86.10
2022-09-30T06:03:46.831Z,86.04
2022-09-30T06:06:15.948Z,85.95
2022-09-30T06:08:44.549Z,85.95
2022-09-30T06:11:16.478Z,86.22
2022-09-30T06:13:45.886Z,85.94
2022-09-30T06:16:18.350Z,85.86
2022-09-30T06:18:46.869Z,85.92
2022-09-30T06:21:18.124Z,86.17
2022-09-30T06:23:46.751Z,86.18
2022-09-30T06:26:15.137Z,86.15
2022-09-30T06:28:44.012Z,86.24
2022-09-30T06:31:12.816Z,86.16
2022-09-30T06:33:42.282Z,86.06
2022-09-30T06:36:10.504Z,86.02
2022-09-30T06:38:40.179Z,85.62
2022-09-30T06:41:09.584Z,85.49
2022-09-30T06:43:45.551Z,85.54
2022-09-30T06:46:30.703Z,85.59
2022-09-30T06:49:13.352Z,85.56
2022-09-30T06:51:42.484Z,85.67
2022-09-30T06:54:11.175Z,85.54
2022-09-30T06:56:39.779Z,85.61
2022-09-30T06:59:07.934Z,85.76
2022-09-30T07:01:36.110Z,85.66
2022-09-30T07:04:09.588Z,85.38
2022-09-30T07:06:39.177Z,85.29
2022-09-30T07:09:08.442Z,85.01
2022-09-30T07:11:37.441Z,84.88
2022-09-30T07:14:07.233Z,84.84
2022-09-30T07:16:35.256Z,84.89
2022-09-30T07:19:05.175Z,84.85
2022-09-30T07:21:33.679Z,84.86
2022-09-30T07:24:02.220Z,84.82
2022-09-30T07:26:30.975Z,84.84
2022-09-30T07:29:00.300Z,84.67
2022-09-30T07:31:34.049Z,84.46
2022-09-30T07:34:09.285Z,84.31
2022-09-30T07:36:40.219Z,84.39
2022-09-30T07:39:10.858Z,84.47
2022-09-30T07:41:40.662Z,84.30
2022-09-30T07:44:14.638Z,84.09
2022-09-30T07:46:44.808Z,84.00
2022-09-30T07:49:25.641Z,83.98
2022-09-30T07:51:59.692Z,83.95
2022-09-30T07:54:32.067Z,83.99
2022-09-30T07:57:11.953Z,83.87
2022-09-30T07:59:42.096Z,83.84
2022-09-30T08:02:18.195Z,83.71
2022-09-30T08:04:47.283Z,83.53
2022-09-30T08:07:17.979Z,83.39
2022-09-30T08:09:46.013Z,83.31
2022-09-30T08:12:14.135Z,83.47
2022-09-30T08:14:42.245Z,83.00
2022-09-30T08:17:10.399Z,82.78
2022-09-30T08:19:41.476Z,82.43
2022-09-30T08:22:10.699Z,82.13
2022-09-30T08:24:38.707Z,82.03
2022-09-30T08:27:06.709Z,81.70
2022-09-30T08:32:22.603Z,81.30
2022-09-30T08:34:50.548Z,81.20
2022-09-30T08:37:18.551Z,81.11
2022-09-30T08:39:48.393Z,81.07
2022-09-30T08:42:58.822Z,80.80
2022-09-30T08:45:40.917Z,80.88
2022-09-30T08:48:28.829Z,81.16
2022-09-30T08:51:16.913Z,81.16
2022-09-30T08:53:48.321Z,81.33
2022-09-30T08:56:45.045Z,81.32
2022-09-30T08:59:38.908Z,81.27
2022-09-30T09:02:22.694Z,81.38
2022-09-30T09:04:52.696Z,81.43
2022-09-30T09:08:00.807Z,81.44
2022-09-30T09:10:56.073Z,81.28
2022-09-30T09:14:02.248Z,80.70
2022-09-30T09:16:55.467Z,80.44
2022-09-30T09:19:39.249Z,80.64
2022-09-30T09:22:10.982Z,80.50
2022-09-30T09:24:49.207Z,80.56
2022-09-30T09:27:19.308Z,80.43
2022-09-30T09:29:56.580Z,80.21
2022-09-30T09:32:27.666Z,80.17
2022-09-30T09:35:07.291Z,80.00
2022-09-30T09:38:25.665Z,79.89
2022-09-30T09:41:40.711Z,79.64
2022-09-30T09:44:48.321Z,79.40
2022-09-30T09:47:17.388Z,79.29
2022-09-30T09:50:04.544Z,79.08
2022-09-30T09:53:30.247Z,78.65
2022-09-30T09:56:00.080Z,78.32
2022-09-30T09:58:28.359Z,78.21
2022-09-30T10:01:32.682Z,78.10
2022-09-30T10:04:22.027Z,78.05
2022-09-30T10:07:01.953Z,78.18
2022-09-30T10:09:39.818Z,78.11
2022-09-30T10:12:07.772Z,78.09
2022-09-30T10:14:46.410Z,77.75
2022-09-30T10:17:30.108Z,77.49
2022-09-30T10:20:07.585Z,77.15
2022-09-30T10:22:36.977Z,77.10
2022-09-30T10:25:25.461Z,77.13
2022-09-30T10:28:02.894Z,76.75
2022-09-30T10:31:10.901Z,76.54
2022-09-30T10:33:53.605Z,76.46
2022-09-30T10:36:29.659Z,76.35
2022-09-30T10:39:06.566Z,76.07
2022-09-30T10:41:38.282Z,75.92
2022-09-30T10:44:18.335Z,75.49
2022-09-30T10:46:50.419Z,75.03
2022-09-30T10:50:00.366Z,74.87
2022-09-30T10:52:34.765Z,74.90
2022-09-30T10:55:20.977Z,74.57
2022-09-30T10:57:53.099Z,74.25
2022-09-30T11:00:25.247Z,74.18
2022-09-30T11:03:18.336Z,73.58
2022-09-30T11:05:49.879Z,73.28
2022-09-30T11:08:43.836Z,73.17
2022-09-30T11:11:20.707Z,72.81
2022-09-30T11:14:07.269Z,72.85
2022-09-30T11:16:47.403Z,72.30
2022-09-30T11:19:32.915Z,72.14
2022-09-30T11:22:36.432Z,72.29
2022-09-30T11:25:10.875Z,72.38
2022-09-30T11:28:14.876Z,70.90
2022-09-30T11:31:06.848Z,70.87
2022-09-30T11:33:55.433Z,70.46
2022-09-30T11:37:02.613Z,70.22
2022-09-30T11:39:45.236Z,69.62
2022-09-30T11:42:36.728Z,69.51
2022-09-30T11:45:22.181Z,70.00
2022-09-30T11:48:17.805Z,69.80
2022-09-30T11:51:16.621Z,69.87
2022-09-30T11:54:33.623Z,69.12
2022-09-30T11:57:10.649Z,69.40
2022-09-30T11:59:48.378Z,69.75
2022-09-30T12:02:44.647Z,69.77
2022-09-30T12:05:24.240Z,69.30
2022-09-30T12:08:09.368Z,69.35
2022-09-30T12:10:52.143Z,68.54
2022-09-30T12:13:36.430Z,68.28
2022-09-30T12:16:14.994Z,67.68
2022-09-30T12:19:00.797Z,67.66
2022-09-30T12:21:40.015Z,67.16
2022-09-30T12:24:37.535Z,66.88
2022-09-30T12:27:15.015Z,66.71
2022-09-30T12:30:17.725Z,66.40
2022-09-30T12:33:27.325Z,66.53
2022-09-30T12:36:27.526Z,66.91
2022-09-30T12:40:01.267Z,67.09
2022-09-30T12:42:44.301Z,66.76
2022-09-30T12:45:50.364Z,66.97
2022-09-30T12:48:23.704Z,67.32
2022-09-30T12:50:57.845Z,67.37
2022-09-30T12:53:33.586Z,67.25
2022-09-30T12:56:15.968Z,67.60
2022-09-30T12:58:49.521Z,67.41
2022-09-30T13:01:25.269Z,67.02
2022-09-30T13:04:17.832Z,67.45
2022-09-30T13:06:45.963Z,67.63
2022-09-30T13:09:18.695Z,67.75
2022-09-30T13:12:13.641Z,67.73
2022-09-30T13:14:46.176Z,67.61
2022-09-30T13:17:14.045Z,67.52
2022-09-30T13:19:54.326Z,67.85
2022-09-30T13:22:24.328Z,67.46
2022-09-30T13:24:58.334Z,67.49
2022-09-30T13:27:47.401Z,66.49
2022-09-30T13:30:18.035Z,66.41
2022-09-30T13:33:04.530Z,66.37
2022-09-30T13:35:48.739Z,66.20
2022-09-30T13:38:20.335Z,66.29
2022-09-30T13:41:02.946Z,66.29
2022-09-30T13:44:10.210Z,66.50
2022-09-30T13:47:00.084Z,66.06
2022-09-30T13:49:42.894Z,66.51
2022-09-30T13:52:38.296Z,66.83
2022-09-30T13:55:20.143Z,66.57
2022-09-30T13:58:02.553Z,66.56
2022-09-30T14:00:53.299Z,66.61
2022-09-30T14:04:34.858Z,66.99
2022-09-30T14:07:13.112Z,67.56
2022-09-30T14:09:51.807Z,67.68
2022-09-30T14:12:56.633Z,68.27
2022-09-30T14:15:42.783Z,68.70
2022-09-30T14:18:37.764Z,69.31
2022-09-30T14:21:44.935Z,69.58
2022-09-30T14:24:25.412Z,70.84
2022-09-30T14:27:40.828Z,71.56
2022-09-30T14:30:14.728Z,72.70
2022-09-30T14:32:49.330Z,73.72
2022-09-30T14:35:28.250Z,74.50
2022-09-30T14:38:07.908Z,75.19
2022-09-30T14:40:40.724Z,76.06
2022-09-30T14:43:18.334Z,76.73
2022-09-30T14:45:55.500Z,77.25
2022-09-30T14:48:29.816Z,78.18
2022-09-30T14:51:05.047Z,78.25
2022-09-30T14:53:36.789Z,78.83
2022-09-30T14:56:42.971Z,79.78
2022-09-30T14:59:33.277Z,80.58
2022-09-30T15:02:12.806Z,81.08
2022-09-30T15:04:50.952Z,81.46
2022-09-30T15:07:19.639Z,81.69
2022-09-30T15:09:50.233Z,82.28
2022-09-30T15:12:23.755Z,82.70
2022-09-30T15:15:00.318Z,83.05
2022-09-30T15:17:35.431Z,83.13
2022-09-30T15:20:29.933Z,83.42
2022-09-30T15:23:03.642Z,83.61
2022-09-30T15:25:31.998Z,83.98
2022-09-30T15:28:00.196Z,84.05
2022-09-30T15:30:29.546Z,84.33
2022-09-30T15:33:05.185Z,84.28
2022-09-30T15:35:33.905Z,84.52
2022-09-30T15:38:24.705Z,84.62
2022-09-30T15:41:09.679Z,84.88
2022-09-30T15:43:44.591Z,84.89
2022-09-30T15:46:28.842Z,84.99
2022-09-30T15:49:01.734Z,85.25
2022-09-30T15:51:41.457Z,85.32
2022-09-30T15:54:15.380Z,85.70
2022-09-30T15:56:43.770Z,85.84
2022-09-30T15:59:14.703Z,85.65
2022-09-30T16:01:50.049Z,86.07
2022-09-30T16:04:23.073Z,86.08
2022-09-30T16:06:57.901Z,86.21
2022-09-30T16:09:34.363Z,86.47
2022-09-30T16:12:13.915Z,86.36
2022-09-30T16:14:51.299Z,86.44
2022-09-30T16:17:29.297Z,86.64
2022-09-30T16:20:22.647Z,86.65
2022-09-30T16:22:53.485Z,86.79
2022-09-30T16:25:33.196Z,86.69
2022-09-30T16:28:15.401Z,86.85
2022-09-30T16:30:51.061Z,86.75
2022-09-30T16:33:19.082Z,86.99
2022-09-30T16:35:47.619Z,86.97
2022-09-30T16:38:18.738Z,87.34
2022-09-30T16:40:47.161Z,87.42
2022-09-30T16:43:15.058Z,87.52
2022-09-30T16:45:43.858Z,87.82
2022-09-30T16:48:16.818Z,87.77
2022-09-30T16:51:07.781Z,88.00
2022-09-30T16:53:35.755Z,88.00
2022-09-30T16:56:05.017Z,88.16
2022-09-30T16:58:32.972Z,88.02
2022-09-30T17:01:00.859Z,88.15
2022-09-30T17:03:28.979Z,88.39
2022-09-30T17:05:57.339Z,88.27
2022-09-30T17:08:25.238Z,88.47
2022-09-30T17:10:53.404Z,88.35
2022-09-30T17:13:21.375Z,88.40
2022-09-30T17:15:51.852Z,88.58
2022-09-30T17:18:20.286Z,88.51
2022-09-30T17:20:52.872Z,88.56
2022-09-30T17:23:24.267Z,88.66
2022-09-30T17:25:54.103Z,88.88
2022-09-30T17:28:22.570Z,89.19
2022-09-30T17:30:50.783Z,89.39
2022-09-30T17:33:20.016Z,89.57
2022-09-30T17:36:02.470Z,89.52
2022-09-30T17:38:30.640Z,89.73
2022-09-30T17:41:19.047Z,89.98
2022-09-30T17:43:47.810Z,90.09
2022-09-30T17:46:19.277Z,89.95
2022-09-30T17:48:48.336Z,90.11
2022-09-30T17:51:17.210Z,90.14
2022-09-30T17:53:45.939Z,90.21
2022-09-30T17:56:22.881Z,90.52
2022-09-30T17:58:51.644Z,90.48
2022-09-30T18:01:21.644Z,90.72
2022-09-30T18:03:53.505Z,90.65
2022-09-30T18:06:21.693Z,90.58
2022-09-30T18:08:51.399Z,90.65
2022-09-30T18:11:26.183Z,90.80
2022-09-30T18:13:58.149Z,90.76
2022-09-30T18:16:33.807Z,90.83
2022-09-30T18:19:08.752Z,90.85
2022-09-30T18:21:38.774Z,90.77
2022-09-30T18:24:16.086Z,90.70
2022-09-30T18:26:44.215Z,91.02
2022-09-30T18:29:12.180Z,91.01
2022-09-30T18:31:41.328Z,91.13
2022-09-30T18:34:12.367Z,91.11
2022-09-30T18:36:40.566Z,91.30
2022-09-30T18:39:09.285Z,91.10
2022-09-30T18:41:56.571Z,91.15
2022-09-30T18:44:26.820Z,91.07
2022-09-30T18:46:58.094Z,91.23
2022-09-30T18:49:26.696Z,91.23
2022-09-30T18:52:02.125Z,91.10
2022-09-30T18:54:32.138Z,91.33
2022-09-30T18:57:01.161Z,91.40
2022-09-30T18:59:30.973Z,91.34
2022-09-30T19:02:00.707Z,91.14
2022-09-30T19:04:29.347Z,91.24
2022-09-30T19:06:57.502Z,91.32
2022-09-30T19:09:26.870Z,91.33
2022-09-30T19:11:55.570Z,91.59
2022-09-30T19:14:24.192Z,91.41
2022-09-30T19:16:52.613Z,91.48
2022-09-30T19:19:22.909Z,91.56
2022-09-30T19:21:51.281Z,91.34
2022-09-30T19:24:27.479Z,91.42
2022-09-30T19:26:55.863Z,91.57
2022-09-30T19:29:25.183Z,91.48
2022-09-30T19:31:54.787Z,91.50
2022-09-30T19:34:32.186Z,91.57
2022-09-30T19:37:01.096Z,91.65
2022-09-30T19:39:40.908Z,91.50
2022-09-30T19:42:14.544Z,91.52
2022-09-30T19:44:42.563Z,91.51
2022-09-30T19:47:12.430Z,91.50
2022-09-30T19:49:40.468Z,91.38
2022-09-30T19:52:17.728Z,91.39
2022-09-30T19:54:49.508Z,91.44
2022-09-30T19:57:17.807Z,91.41
2022-09-30T19:59:45.735Z,91.53
2022-09-30T20:02:13.841Z,91.48
2022-09-30T20:04:43.818Z,91.44
2022-09-30T20:07:15.665Z,91.58
2022-09-30T20:09:46.829Z,91.53
2022-09-30T20:12:15.083Z,91.70
2022-09-30T20:15:01.804Z,91.87
2022-09-30T20:17:30.251Z,91.85
2022-09-30T20:20:17.697Z,91.86
2022-09-30T20:22:46.012Z,92.07
2022-09-30T20:25:15.425Z,91.92
2022-09-30T20:27:48.631Z,92.02
2022-09-30T20:30:21.072Z,92.02
2022-09-30T20:32:49.016Z,92.05
2022-09-30T20:35:17.556Z,92.27
2022-09-30T20:37:48.640Z,92.30
2022-09-30T20:40:16.855Z,92.17
2022-09-30T20:42:45.542Z,92.23
2022-09-30T20:45:14.196Z,92.19
2022-09-30T20:47:48.798Z,92.05
2022-09-30T20:50:35.125Z,92.20
2022-09-30T20:53:07.388Z,92.11
2022-09-30T20:55:41.568Z,92.20
2022-09-30T20:58:11.106Z,92.26
2022-09-30T21:00:42.664Z,92.33
2022-09-30T21:03:14.563Z,92.33
2022-09-30T21:05:52.611Z,92.07
2022-09-30T21:08:20.594Z,92.14
2022-09-30T21:10:48.494Z,92.22
2022-09-30T21:13:16.752Z,92.13
2022-09-30T21:15:45.782Z,92.09
2022-09-30T21:18:14.083Z,92.01
2022-09-30T21:20:42.132Z,92.00
2022-09-30T21:23:10.206Z,91.94
2022-09-30T21:25:38.175Z,91.93
2022-09-30T21:28:07.056Z,91.97
2022-09-30T21:30:41.865Z,91.99
2022-09-30T21:33:09.822Z,91.90
2022-09-30T21:35:37.804Z,91.79
2022-09-30T21:38:05.813Z,91.83
2022-09-30T21:40:33.761Z,91.88
2022-09-30T21:43:01.843Z,91.87
2022-09-30T21:45:29.851Z,91.74
2022-09-30T21:48:04.815Z,91.79
2022-09-30T21:50:36.851Z,91.70
2022-09-30T21:53:05.055Z,91.68
2022-09-30T21:55:33.539Z,91.62
2022-09-30T21:58:01.423Z,91.54
2022-09-30T22:00:29.336Z,91.61
2022-09-30T22:02:58.134Z,91.65
2022-09-30T22:05:26.012Z,91.68
2022-09-30T22:07:53.917Z,91.69
2022-09-30T22:10:21.780Z,91.71
2022-09-30T22:12:51.179Z,91.61
2022-09-30T22:15:19.271Z,91.60
2022-09-30T22:17:47.208Z,91.63
2022-09-30T22:20:15.206Z,91.61
2022-09-30T22:22:43.159Z,91.65
2022-09-30T22:25:11.241Z,91.69
2022-09-30T22:27:39.185Z,91.75
2022-09-30T22:30:09.169Z,91.73
2022-09-30T22:32:37.061Z,91.70
2022-09-30T22:35:24.736Z,91.68
2022-09-30T22:38:18.845Z,91.62
2022-09-30T22:40:46.731Z,91.71
2022-09-30T22:43:15.325Z,91.67
2022-09-30T22:45:44.000Z,91.58
2022-09-30T22:48:12.122Z,91.67
2022-09-30T22:50:40.522Z,91.85
2022-09-30T22:53:08.458Z,91.76
2022-09-30T22:55:38.050Z,91.54
2022-09-30T22:58:06.053Z,91.59
2022-09-30T23:00:33.973Z,91.54
2022-09-30T23:03:03.655Z,91.72
2022-09-30T23:05:31.661Z,91.75
2022-09-30T23:07:59.523Z,91.47
2022-09-30T23:10:27.580Z,91.44
2022-09-30T23:12:55.476Z,91.53
2022-09-30T23:15:23.467Z,91.45
2022-09-30T23:17:51.356Z,91.37
2022-09-30T23:20:19.258Z,91.52
2022-09-30T23:22:47.289Z,91.49
2022-09-30T23:25:15.230Z,91.41
2022-09-30T23:27:48.887Z,91.67
2022-09-30T23:30:17.305Z,91.44
2022-09-30T23:32:45.174Z,91.39
2022-09-30T23:35:14.137Z,91.36
2022-09-30T23:37:42.011Z,91.47
2022-09-30T23:40:10.299Z,91.50
2022-09-30T23:42:38.595Z,91.52
2022-09-30T23:45:07.300Z,91.50
2022-09-30T23:47:35.144Z,91.53
2022-09-30T23:50:03.676Z,91.44
2022-09-30T23:52:32.267Z,91.47
2022-09-30T23:55:00.166Z,91.55
2022-09-30T23:57:28.116Z,91.63
2022-09-30T23:59:57.084Z,91.52
